Time,TemperatureF,DewpointF,PressureIn,WindDirection,WindDirectionDegrees,WindSpeedMPH,WindSpeedGustMPH,Humidity,HourlyPrecipIn,Conditions,Clouds,dailyrainin,SoftwareType,DateUTC
2013-11-18 00:00:00,61.0,59.0,29.78,SSW,211,6.0,15.0,92,0.00,,,-99.99,,2013-11-18 05:00:00,
2013-11-18 00:43:00,61.0,59.0,29.78,SSW,211,6.0,15.0,92,0.00,,,-99.99,,2013-11-18 05:43:00,
2013-11-18 00:53:00,61.0,59.0,29.78,SSW,211,6.0,15.0,92,0.00,,,-99.99,,2013-11-18 05:53:00,
2013-11-18 01:00:00,61.0,58.0,29.75,SSW,195,6.0,15.0,90,0.00,,,-99.99,,2013-11-18 06:00:00,
2013-11-18 01:42:00,61.0,58.0,29.75,SSW,195,6.0,15.0,90,0.00,,,-99.99,,2013-11-18 06:42:00,
2013-11-18 01:52:00,61.0,58.0,29.75,SSW,195,6.0,15.0,90,0.00,,,-99.99,,2013-11-18 06:52:00,
2013-11-18 02:00:00,61.0,59.0,29.71,South,177,7.0,16.0,91,0.00,,,-99.99,,2013-11-18 07:00:00,
2013-11-18 02:42:00,61.0,59.0,29.71,South,177,7.0,16.0,91,0.00,,,-99.99,,2013-11-18 07:42:00,
2013-11-18 02:52:00,61.0,59.0,29.71,South,177,7.0,16.0,91,0.00,,,-99.99,,2013-11-18 07:52:00,
2013-11-18 03:00:00,62.0,60.0,29.67,SSW,197,12.0,21.0,92,0.03,,,-99.99,,2013-11-18 08:00:00,
2013-11-18 03:42:00,62.0,60.0,29.67,SSW,197,12.0,21.0,92,0.03,,,-99.99,,2013-11-18 08:42:00,
2013-11-18 03:52:00,62.0,60.0,29.67,SSW,197,12.0,21.0,92,0.03,,,-99.99,,2013-11-18 08:52:00,
2013-11-18 04:00:00,62.0,60.0,29.65,SSW,208,9.0,20.0,93,0.07,,,-99.99,,2013-11-18 09:00:00,
2013-11-18 04:43:00,62.0,60.0,29.65,SSW,208,9.0,20.0,93,0.07,,,-99.99,,2013-11-18 09:43:00,
2013-11-18 04:53:00,62.0,60.0,29.65,SSW,208,9.0,20.0,93,0.07,,,-99.99,,2013-11-18 09:53:00,
2013-11-18 05:00:00,62.0,54.0,29.69,WSW,252,9.0,20.0,76,0.07,,,-99.99,,2013-11-18 10:00:00,
2013-11-18 05:43:00,62.0,54.0,29.69,WSW,252,9.0,20.0,76,0.07,,,-99.99,,2013-11-18 10:43:00,
2013-11-18 05:53:00,62.0,54.0,29.69,WSW,252,9.0,20.0,76,0.07,,,-99.99,,2013-11-18 10:53:00,
2013-11-18 06:00:00,58.0,52.0,29.68,SW,225,5.0,13.0,80,0.00,,,-99.99,,2013-11-18 11:00:00,
2013-11-18 06:42:00,58.0,52.0,29.68,SW,225,5.0,13.0,80,0.00,,,-99.99,,2013-11-18 11:42:00,
2013-11-18 06:53:00,58.0,52.0,29.68,SW,225,5.0,13.0,80,0.00,,,-99.99,,2013-11-18 11:53:00,
2013-11-18 07:00:00,56.0,51.0,29.70,SW,225,6.0,12.0,82,0.01,,,-99.99,,2013-11-18 12:00:00,
2013-11-18 07:42:00,56.0,51.0,29.70,SW,225,6.0,12.0,82,0.01,,,-99.99,,2013-11-18 12:42:00,
2013-11-18 07:52:00,56.0,51.0,29.70,SW,225,6.0,12.0,82,0.01,,,-99.99,,2013-11-18 12:52:00,
2013-11-18 08:00:00,56.0,49.0,29.71,SSW,210,6.0,11.0,78,0.00,,,-99.99,,2013-11-18 13:00:00,
2013-11-18 08:42:00,56.0,49.0,29.71,SSW,210,6.0,11.0,78,0.00,,,-99.99,,2013-11-18 13:42:00,
2013-11-18 08:52:00,56.0,49.0,29.71,SSW,210,6.0,11.0,78,0.00,,,-99.99,,2013-11-18 13:52:00,
2013-11-18 09:00:00,58.0,49.0,29.72,SW,224,5.0,12.0,73,0.00,,,-99.99,,2013-11-18 14:00:00,
2013-11-18 09:42:00,58.0,49.0,29.72,SW,224,5.0,12.0,73,0.00,,,-99.99,,2013-11-18 14:42:00,
2013-11-18 09:52:00,58.0,49.0,29.72,SW,224,5.0,12.0,73,0.00,,,-99.99,,2013-11-18 14:52:00,
2013-11-18 10:00:00,63.0,47.0,29.72,WSW,252,3.0,17.0,56,0.00,,,-99.99,,2013-11-18 15:00:00,
2013-11-18 10:43:00,63.0,47.0,29.72,WSW,252,3.0,17.0,56,0.00,,,-99.99,,2013-11-18 15:43:00,
2013-11-18 10:54:00,63.0,47.0,29.72,WSW,252,3.0,17.0,56,0.00,,,-99.99,,2013-11-18 15:54:00,
2013-11-18 11:00:00,65.0,39.0,29.69,WNW,288,13.0,23.0,38,0.00,,,-99.99,,2013-11-18 16:00:00,
2013-11-18 11:43:00,65.0,39.0,29.69,WNW,288,13.0,23.0,38,0.00,,,-99.99,,2013-11-18 16:43:00,
2013-11-18 11:53:00,65.0,39.0,29.69,WNW,288,13.0,23.0,38,0.00,,,-99.99,,2013-11-18 16:53:00,
2013-11-18 12:00:00,65.0,36.0,29.66,West,270,10.0,21.0,34,0.00,,,-99.99,,2013-11-18 17:00:00,
2013-11-18 12:43:00,65.0,36.0,29.66,West,270,10.0,21.0,34,0.00,,,-99.99,,2013-11-18 17:43:00,
2013-11-18 12:52:00,65.0,36.0,29.66,West,270,10.0,21.0,34,0.00,,,-99.99,,2013-11-18 17:52:00,
2013-11-18 13:00:00,66.0,36.0,29.65,WNW,302,10.0,20.0,33,0.00,,,-99.99,,2013-11-18 18:00:00,
2013-11-18 13:42:00,66.0,36.0,29.65,WNW,302,10.0,20.0,33,0.00,,,-99.99,,2013-11-18 18:42:00,
2013-11-18 13:52:00,66.0,36.0,29.65,WNW,302,10.0,20.0,33,0.00,,,-99.99,,2013-11-18 18:52:00,
2013-11-18 14:00:00,67.0,32.0,29.64,West,276,5.0,19.0,28,0.00,,,-99.99,,2013-11-18 19:00:00,
2013-11-18 14:42:00,67.0,32.0,29.64,West,276,5.0,19.0,28,0.00,,,-99.99,,2013-11-18 19:42:00,
2013-11-18 14:52:00,67.0,32.0,29.64,West,276,5.0,19.0,28,0.00,,,-99.99,,2013-11-18 19:52:00,
2013-11-18 15:00:00,66.0,30.0,29.65,SW,230,0.0,18.0,26,0.00,,,-99.99,,2013-11-18 20:00:00,
2013-11-18 15:42:00,66.0,30.0,29.65,SW,230,0.0,18.0,26,0.00,,,-99.99,,2013-11-18 20:42:00,
2013-11-18 15:52:00,66.0,30.0,29.65,SW,230,0.0,18.0,26,0.00,,,-99.99,,2013-11-18 20:52:00,
2013-11-18 16:00:00,64.0,30.0,29.67,WSW,253,0.0,14.0,28,0.00,,,-99.99,,2013-11-18 21:00:00,
2013-11-18 16:43:00,64.0,30.0,29.67,WSW,253,0.0,14.0,28,0.00,,,-99.99,,2013-11-18 21:43:00,
2013-11-18 16:54:00,64.0,30.0,29.67,WSW,253,0.0,14.0,28,0.00,,,-99.99,,2013-11-18 21:54:00,
2013-11-18 17:00:00,56.0,31.0,29.70,West,267,6.0,10.0,38,0.00,,,-99.99,,2013-11-18 22:00:00,
2013-11-18 17:43:00,56.0,31.0,29.70,West,267,6.0,10.0,38,0.00,,,-99.99,,2013-11-18 22:43:00,
2013-11-18 17:53:00,56.0,31.0,29.70,West,267,6.0,10.0,38,0.00,,,-99.99,,2013-11-18 22:53:00,
2013-11-18 19:00:00,47.0,34.0,29.73,WSW,249,3.0,8.0,60,0.00,,,-99.99,,2013-11-19 00:00:00,
2013-11-18 19:42:00,47.0,34.0,29.73,WSW,249,3.0,8.0,60,0.00,,,-99.99,,2013-11-19 00:42:00,
2013-11-18 19:52:00,47.0,34.0,29.73,WSW,249,3.0,8.0,60,0.00,,,-99.99,,2013-11-19 00:52:00,
2013-11-18 20:00:00,54.0,27.0,29.75,WNW,288,10.0,11.0,35,0.00,,,-99.99,,2013-11-19 01:00:00,
2013-11-18 20:42:00,54.0,27.0,29.75,WNW,288,10.0,11.0,35,0.00,,,-99.99,,2013-11-19 01:42:00,
2013-11-18 20:52:00,54.0,27.0,29.75,WNW,288,10.0,11.0,35,0.00,,,-99.99,,2013-11-19 01:52:00,
2013-11-18 21:00:00,53.0,26.0,29.77,WNW,288,1.0,13.0,35,0.00,,,-99.99,,2013-11-19 02:00:00,
2013-11-18 21:42:00,53.0,26.0,29.77,WNW,288,1.0,13.0,35,0.00,,,-99.99,,2013-11-19 02:42:00,
2013-11-18 21:52:00,53.0,26.0,29.77,WNW,288,1.0,13.0,35,0.00,,,-99.99,,2013-11-19 02:52:00,
2013-11-18 22:43:00,51.0,26.0,29.77,WNW,294,10.0,11.0,36,0.00,,,-99.99,,2013-11-19 03:43:00,
2013-11-18 22:54:00,51.0,26.0,29.77,WNW,294,10.0,11.0,36,0.00,,,-99.99,,2013-11-19 03:54:00,
2013-11-18 23:00:00,51.0,26.0,29.79,NNW,341,3.0,13.0,38,0.00,,,-99.99,,2013-11-19 04:00:00,
2013-11-18 23:42:00,51.0,26.0,29.79,NNW,341,3.0,13.0,38,0.00,,,-99.99,,2013-11-19 04:42:00,
2013-11-18 23:52:00,51.0,26.0,29.79,NNW,341,3.0,13.0,38,0.00,,,-99.99,,2013-11-19 04:52:00,